WetterOnline ( https://www.wetteronline.ch )

Wetter aktuell Bad Hersfeld

Aktuelles Wetter: Bad Hersfeld (273m)

6-stündlich | Neueste Meldungen
Ortszeit Temperatur Wetter
Di, 23.04. 14:00 18.8° C leicht bewölkt
Di, 23.04. 8:00 8.9° C wolkenlos
Di, 23.04. 2:00 9.0° C leicht bewölkt
Mo, 22.04. 20:00 16.1° C leicht bewölkt
Mo, 22.04. 14:00 20.2° C leicht bewölkt
Mo, 22.04. 8:00 7.4° C wolkenlos
Mo, 22.04. 2:00 10.4° C wolkenlos
So, 21.04. 20:00 18.7° C wolkenlos
Ortszeit Temperatur Wetter
Di, 23.04. 19:30 19.1° C bedeckt
Di, 23.04. 19:20 19.1° C bedeckt
Di, 23.04. 19:10 19.2° C bedeckt
Di, 23.04. 19:00 19.5° C bedeckt
Di, 23.04. 18:50 19.5° C bedeckt
Di, 23.04. 18:40 19.5° C bedeckt
Di, 23.04. 18:30 19.7° C bedeckt
Di, 23.04. 18:00 20.0° C bedeckt
Di, 23.04. 17:30 20.9° C bewölkt
Di, 23.04. 17:00 21.7° C leicht bewölkt
Di, 23.04. 16:30 21.3° C wolkig
Ortszeit Relative Feuchte Sichtweite
Di, 23.04. 14:00 45% 16 km
Di, 23.04. 8:00 66% 15 km
Di, 23.04. 2:00 57% 19 km
Mo, 22.04. 20:00 34% 21 km
Mo, 22.04. 14:00 31% 18 km
Mo, 22.04. 8:00 63% 16 km
Mo, 22.04. 2:00 54% 19 km
So, 21.04. 20:00 34% 16 km
Ortszeit Relative Feuchte Sichtweite
Di, 23.04. 19:30 44% 16 km
Di, 23.04. 19:20 44% -
Di, 23.04. 19:10 44% -
Di, 23.04. 19:00 42% 17 km
Di, 23.04. 18:50 42% -
Di, 23.04. 18:40 42% -
Di, 23.04. 18:30 42% 15 km
Di, 23.04. 18:00 39% 15 km
Di, 23.04. 17:30 38% 17 km
Di, 23.04. 17:00 36% 19 km
Di, 23.04. 16:30 38% 15 km
Ortszeit Niederschlagsmenge Niederschlagsart
Di, 23.04. 14:00 0.0 l/m2 in 6 Std. -
Di, 23.04. 8:00 0.0 l/m2 in 12 Std. -
Di, 23.04. 2:00 0.0 l/m2 in 6 Std. -
Mo, 22.04. 20:00 0.0 l/m2 in 12 Std. -
Mo, 22.04. 14:00 0.0 l/m2 in 6 Std. -
Mo, 22.04. 8:00 0.0 l/m2 in 12 Std. -
Mo, 22.04. 2:00 0.0 l/m2 in 6 Std. -
So, 21.04. 20:00 0.0 l/m2 in 12 Std. -
Ortszeit Niederschlagsmenge Niederschlagsart
Di, 23.04. 19:30 0.0 l/m2 in 1 Std. -
Di, 23.04. 19:20 keine Meldung -
Di, 23.04. 19:10 keine Meldung -
Di, 23.04. 19:00 0.0 l/m2 in 1 Std. -
Di, 23.04. 18:50 keine Meldung -
Di, 23.04. 18:40 keine Meldung -
Di, 23.04. 18:30 0.0 l/m2 in 1 Std. -
Di, 23.04. 18:00 0.0 l/m2 in 1 Std. -
Di, 23.04. 17:30 0.0 l/m2 in 1 Std. -
Di, 23.04. 17:00 0.0 l/m2 in 1 Std. -
Di, 23.04. 16:30 0.0 l/m2 in 1 Std. -
Ortszeit Stärke Spitze Richtung
km/h Bft. km/h Grad Sektor
Di, 23.04. 14:00 18 3 40 50° NO
Di, 23.04. 8:00 17 3 28 20° N
Di, 23.04. 2:00 14 3 54 30° NO
Mo, 22.04. 20:00 31 5 56 50° NO
Mo, 22.04. 14:00 22 4 43 50° NO
Mo, 22.04. 8:00 0 0 7 - -
Mo, 22.04. 2:00 4 1 25 50° NO
So, 21.04. 20:00 14 3 32 30° NO
Ortszeit Stärke Spitze Richtung
km/h Bft. km/h Grad Sektor
Di, 23.04. 19:30 11 2 22 90° O
Di, 23.04. 19:20 11 2 - 90° O
Di, 23.04. 19:10 14 3 - 100° O
Di, 23.04. 19:00 11 2 25 110° O
Di, 23.04. 18:50 11 2 - 110° O
Di, 23.04. 18:40 15 3 - 110° O
Di, 23.04. 18:30 11 2 22 130° SO
Di, 23.04. 18:00 14 3 32 130° SO
Di, 23.04. 17:30 14 3 29 120° SO
Di, 23.04. 17:00 14 3 32 140° SO
Di, 23.04. 16:30 14 3 29 80° O
Ortszeit Untergrenze Bedeckung Gattung
total tief tief mittel hoch
Di, 23.04. 14:00 9000 m 7/8 0/8 - - -
Di, 23.04. 8:00 - 0/8 0/8 - - -
Di, 23.04. 2:00 9000 m 3/8 0/8 - - -
Mo, 22.04. 20:00 9000 m 8/8 0/8 - - -
Mo, 22.04. 14:00 9000 m 8/8 0/8 - - -
Mo, 22.04. 8:00 - 0/8 0/8 - - -
Mo, 22.04. 2:00 - 0/8 0/8 - - -
So, 21.04. 20:00 - 0/8 0/8 - - -
Ortszeit Bedeckungsgrad in Achtel und Wolkenuntergrenze
Di, 23.04. 19:30 3(3000m) 8(3900m)
Di, 23.04. 19:20 3(3000m) 8(3900m)
Di, 23.04. 19:10 1(3300m) 8(3900m) 8(9000m)
Di, 23.04. 19:00 8(3600m)
Di, 23.04. 18:50 8(3600m)
Di, 23.04. 18:40 8(3600m) 8(9000m)
Di, 23.04. 18:30 8(3600m) 8(9000m)
Di, 23.04. 18:00 8(3600m)
Di, 23.04. 17:30 6(3600m) 8(9000m)
Di, 23.04. 17:00 1(3300m) 8(9000m)
Di, 23.04. 16:30 7(9000m) 7(9000m)
Ortszeit Luftdruck NN (hPa) Tendenz (hPa in 3 Std.)
Di, 23.04. 14:00 1000 - 1,5
Di, 23.04. 8:00 1004 - 1,1
Di, 23.04. 2:00 1007 - 1,6
Mo, 22.04. 20:00 1008 - 0,6
Mo, 22.04. 14:00 1010 - 2,2
Mo, 22.04. 8:00 1015 - 0,7
Mo, 22.04. 2:00 1017 - 0,7
So, 21.04. 20:00 1017 - 1,2
Ortszeit Luftdruck NN (hPa) Tendenz (hPa in 3 Std.)
Di, 23.04. 19:30 999 - 0,2
Di, 23.04. 19:20 999 keine Meldung
Di, 23.04. 19:10 999 keine Meldung
Di, 23.04. 19:00 999 - 0,3
Di, 23.04. 18:50 999 keine Meldung
Di, 23.04. 18:40 999 keine Meldung
Di, 23.04. 18:30 999 - 0,3
Di, 23.04. 18:00 999 - 0,5
Di, 23.04. 17:30 999 - 0,7
Di, 23.04. 17:00 999 - 0,9
Di, 23.04. 16:30 999 - 1,2
Ortszeit Schneehöhe (cm)
Di, 23.04. 14:00 0
Di, 23.04. 8:00 0
Di, 23.04. 2:00 0
Mo, 22.04. 20:00 0
Mo, 22.04. 14:00 0
Mo, 22.04. 8:00 0
Mo, 22.04. 2:00 0
So, 21.04. 20:00 0
Ortszeit Schneehöhe (cm)
Di, 23.04. 19:30 0
Di, 23.04. 19:20 0
Di, 23.04. 19:10 0
Di, 23.04. 19:00 0
Di, 23.04. 18:50 0
Di, 23.04. 18:40 0
Di, 23.04. 18:30 0
Di, 23.04. 18:00 0
Di, 23.04. 17:30 0
Di, 23.04. 17:00 0
Di, 23.04. 16:30 0
Link zu dieser Seite / Seite empfehlen

Das Wetter in ...